General Aviation Weather

Text Reports

Enter one or more of the following location identifiers separated by a space:

Zip Code, Four-Character ICAO or Three-Character IATA airport codes.

METAR - Aviation Routine Weather Report
KSVC - Silver City, New Mexico
Updated at 1:15 AM GMT on December 19, 2014 (6:15 PM MST):
METAR KSVC 190115Z AUTO 28003KT 10SM OVC019 03/02 A3013 RMK AO2
TAF - Terminal Area Forecast
KSVC - Silver City, New Mexico
Updated at 1:15 AM GMT on December 19, 2014 (6:15 PM MST):
No TAF is currently available for this location.
Decoded:
No decoded TAF is available.
PIREP - Pilot Weather Report
KSVC - Silver City, New Mexico
Updated at 1:15 AM GMT on December 19, 2014 (6:15 PM MST):
No PIREP is currently available for this location.
AIRMET - Airmens Meteorological Information
KSVC - Silver City, New Mexico
Updated at 1:15 AM GMT on December 19, 2014 (6:15 PM MST):
No AIRMET is currently available for this location.
SIGMET - Significant Meteorological Information
KSVC - Silver City, New Mexico
Updated at 1:15 AM GMT on December 19, 2014 (6:15 PM MST):
No SIGMET is currently available for this location.
NOTAM - Notice to Airmen
KSVC - Silver City, New Mexico
Updated at 1:15 AM GMT on December 19, 2014 (6:15 PM MST):
No NOTAM is currently available for this location.
Forecast Area
KSVC - Silver City, New Mexico
Updated at 1:15 AM GMT on December 19, 2014 (6:15 PM MST):
No NOTAM is currently available for this location.
Aviation Weather Maps